sensor_id;sensor_type;location;lat;lon;timestamp;temperature;humidity
6307;DHT22;3186;54.062;9.962;2023-01-08T00:02:00;8.10;99.90
6307;DHT22;3186;54.062;9.962;2023-01-08T00:04:26;8.20;99.90
6307;DHT22;3186;54.062;9.962;2023-01-08T00:06:52;8.20;99.90
6307;DHT22;3186;54.062;9.962;2023-01-08T00:09:18;8.20;99.90
6307;DHT22;3186;54.062;9.962;2023-01-08T00:11:44;8.20;99.90
6307;DHT22;3186;54.062;9.962;2023-01-08T00:14:10;8.20;99.90
6307;DHT22;3186;54.062;9.962;2023-01-08T00:16:36;8.20;99.90
6307;DHT22;3186;54.062;9.962;2023-01-08T00:19:02;8.20;99.90
6307;DHT22;3186;54.062;9.962;2023-01-08T00:21:28;9.80;99.90
6307;DHT22;3186;54.062;9.962;2023-01-08T00:23:54;8.20;99.90
6307;DHT22;3186;54.062;9.962;2023-01-08T00:26:20;8.20;99.90
6307;DHT22;3186;54.062;9.962;2023-01-08T00:28:50;8.30;99.90
6307;DHT22;3186;54.062;9.962;2023-01-08T00:31:15;8.20;99.90
6307;DHT22;3186;54.062;9.962;2023-01-08T00:33:41;8.20;99.90
6307;DHT22;3186;54.062;9.962;2023-01-08T00:36:13;8.20;99.90
6307;DHT22;3186;54.062;9.962;2023-01-08T00:38:40;8.20;99.90
6307;DHT22;3186;54.062;9.962;2023-01-08T00:41:06;8.30;99.90
6307;DHT22;3186;54.062;9.962;2023-01-08T00:43:34;8.20;99.90
6307;DHT22;3186;54.062;9.962;2023-01-08T00:45:59;8.30;99.90
6307;DHT22;3186;54.062;9.962;2023-01-08T00:48:25;8.30;99.90
6307;DHT22;3186;54.062;9.962;2023-01-08T00:50:52;8.30;99.90
6307;DHT22;3186;54.062;9.962;2023-01-08T00:53:19;8.30;99.90
6307;DHT22;3186;54.062;9.962;2023-01-08T00:55:46;8.30;99.90
6307;DHT22;3186;54.062;9.962;2023-01-08T00:58:12;8.30;99.90
6307;DHT22;3186;54.062;9.962;2023-01-08T01:00:38;8.30;99.90
6307;DHT22;3186;54.062;9.962;2023-01-08T01:03:04;8.40;99.90
6307;DHT22;3186;54.062;9.962;2023-01-08T01:05:30;8.30;99.90
6307;DHT22;3186;54.062;9.962;2023-01-08T01:07:56;8.30;99.90
6307;DHT22;3186;54.062;9.962;2023-01-08T01:10:22;8.40;99.90
6307;DHT22;3186;54.062;9.962;2023-01-08T01:12:49;8.40;99.90
6307;DHT22;3186;54.062;9.962;2023-01-08T01:15:16;8.30;99.90
6307;DHT22;3186;54.062;9.962;2023-01-08T01:17:44;8.40;99.90
6307;DHT22;3186;54.062;9.962;2023-01-08T01:20:13;8.40;99.90
6307;DHT22;3186;54.062;9.962;2023-01-08T01:22:39;8.40;99.90
6307;DHT22;3186;54.062;9.962;2023-01-08T01:25:06;8.40;99.90
6307;DHT22;3186;54.062;9.962;2023-01-08T01:27:32;8.30;99.90
6307;DHT22;3186;54.062;9.962;2023-01-08T01:29:58;8.40;99.90
6307;DHT22;3186;54.062;9.962;2023-01-08T01:32:24;8.40;99.90
6307;DHT22;3186;54.062;9.962;2023-01-08T01:34:50;8.40;99.90
6307;DHT22;3186;54.062;9.962;2023-01-08T01:37:15;8.40;99.90
6307;DHT22;3186;54.062;9.962;2023-01-08T01:39:41;8.40;99.90
6307;DHT22;3186;54.062;9.962;2023-01-08T01:42:14;8.40;99.90
6307;DHT22;3186;54.062;9.962;2023-01-08T01:45:02;8.40;99.90
6307;DHT22;3186;54.062;9.962;2023-01-08T01:47:32;8.40;99.90
6307;DHT22;3186;54.062;9.962;2023-01-08T01:50:12;8.40;99.90
6307;DHT22;3186;54.062;9.962;2023-01-08T01:52:48;8.40;99.90
6307;DHT22;3186;54.062;9.962;2023-01-08T01:55:16;8.40;99.90
6307;DHT22;3186;54.062;9.962;2023-01-08T01:57:48;8.40;99.90
6307;DHT22;3186;54.062;9.962;2023-01-08T02:00:15;8.50;99.90
6307;DHT22;3186;54.062;9.962;2023-01-08T02:02:41;8.50;99.90
6307;DHT22;3186;54.062;9.962;2023-01-08T02:05:08;8.50;99.90
6307;DHT22;3186;54.062;9.962;2023-01-08T02:07:55;8.50;99.90
6307;DHT22;3186;54.062;9.962;2023-01-08T02:10:31;8.50;99.90
6307;DHT22;3186;54.062;9.962;2023-01-08T02:13:04;8.50;99.90
6307;DHT22;3186;54.062;9.962;2023-01-08T02:18:28;8.50;99.90
6307;DHT22;3186;54.062;9.962;2023-01-08T02:21:19;8.50;99.90
6307;DHT22;3186;54.062;9.962;2023-01-08T02:24:37;8.50;99.90
6307;DHT22;3186;54.062;9.962;2023-01-08T02:26:35;8.50;99.90
6307;DHT22;3186;54.062;9.962;2023-01-08T02:29:14;8.50;99.90
6307;DHT22;3186;54.062;9.962;2023-01-08T02:31:42;8.50;99.90
6307;DHT22;3186;54.062;9.962;2023-01-08T02:34:09;8.50;99.90
6307;DHT22;3186;54.062;9.962;2023-01-08T02:50:02;8.60;99.90
6307;DHT22;3186;54.062;9.962;2023-01-08T02:52:30;8.60;99.90
6307;DHT22;3186;54.062;9.962;2023-01-08T02:54:58;8.60;99.90
6307;DHT22;3186;54.062;9.962;2023-01-08T02:57:25;8.60;99.90
6307;DHT22;3186;54.062;9.962;2023-01-08T02:59:54;8.60;99.90
6307;DHT22;3186;54.062;9.962;2023-01-08T03:02:21;8.60;99.90
6307;DHT22;3186;54.062;9.962;2023-01-08T03:04:58;8.60;99.90
6307;DHT22;3186;54.062;9.962;2023-01-08T03:07:25;8.60;99.90
6307;DHT22;3186;54.062;9.962;2023-01-08T03:09:51;8.60;99.90
6307;DHT22;3186;54.062;9.962;2023-01-08T03:12:24;8.60;99.90
6307;DHT22;3186;54.062;9.962;2023-01-08T03:14:57;8.70;99.90
6307;DHT22;3186;54.062;9.962;2023-01-08T03:17:34;8.60;99.90
6307;DHT22;3186;54.062;9.962;2023-01-08T03:20:13;8.60;99.90
6307;DHT22;3186;54.062;9.962;2023-01-08T03:22:42;8.70;99.90
6307;DHT22;3186;54.062;9.962;2023-01-08T03:25:09;8.60;99.90
6307;DHT22;3186;54.062;9.962;2023-01-08T03:27:43;8.60;99.90
6307;DHT22;3186;54.062;9.962;2023-01-08T03:30:11;8.60;99.90
6307;DHT22;3186;54.062;9.962;2023-01-08T03:32:38;8.60;99.90
6307;DHT22;3186;54.062;9.962;2023-01-08T03:35:07;8.60;99.90
6307;DHT22;3186;54.062;9.962;2023-01-08T03:37:38;8.60;99.90
6307;DHT22;3186;54.062;9.962;2023-01-08T03:40:13;8.50;99.90
6307;DHT22;3186;54.062;9.962;2023-01-08T03:42:41;8.50;99.90
6307;DHT22;3186;54.062;9.962;2023-01-08T03:45:07;8.50;99.90
6307;DHT22;3186;54.062;9.962;2023-01-08T03:47:35;8.50;99.90
6307;DHT22;3186;54.062;9.962;2023-01-08T03:50:04;8.50;99.90
6307;DHT22;3186;54.062;9.962;2023-01-08T03:52:31;8.50;99.90
6307;DHT22;3186;54.062;9.962;2023-01-08T03:55:00;8.50;99.90
6307;DHT22;3186;54.062;9.962;2023-01-08T03:57:25;8.50;99.90
6307;DHT22;3186;54.062;9.962;2023-01-08T03:59:51;8.50;99.90
6307;DHT22;3186;54.062;9.962;2023-01-08T04:02:17;8.40;99.90
6307;DHT22;3186;54.062;9.962;2023-01-08T04:04:43;8.40;99.90
6307;DHT22;3186;54.062;9.962;2023-01-08T04:07:12;8.40;99.90
6307;DHT22;3186;54.062;9.962;2023-01-08T04:09:38;8.40;99.90
6307;DHT22;3186;54.062;9.962;2023-01-08T04:12:04;8.40;99.90
6307;DHT22;3186;54.062;9.962;2023-01-08T04:14:29;8.40;99.90
6307;DHT22;3186;54.062;9.962;2023-01-08T04:16:55;8.40;99.90
6307;DHT22;3186;54.062;9.962;2023-01-08T04:19:21;8.40;99.90
6307;DHT22;3186;54.062;9.962;2023-01-08T04:21:51;8.40;99.90
6307;DHT22;3186;54.062;9.962;2023-01-08T04:24:18;8.40;99.90
6307;DHT22;3186;54.062;9.962;2023-01-08T04:26:44;8.40;99.90
6307;DHT22;3186;54.062;9.962;2023-01-08T04:29:11;8.40;99.90
6307;DHT22;3186;54.062;9.962;2023-01-08T04:31:37;8.30;99.90
6307;DHT22;3186;54.062;9.962;2023-01-08T04:34:03;8.30;99.90
6307;DHT22;3186;54.062;9.962;2023-01-08T04:36:29;8.40;99.90
6307;DHT22;3186;54.062;9.962;2023-01-08T04:38:55;8.30;99.90
6307;DHT22;3186;54.062;9.962;2023-01-08T04:41:21;8.30;99.90
6307;DHT22;3186;54.062;9.962;2023-01-08T04:43:47;8.40;99.90
6307;DHT22;3186;54.062;9.962;2023-01-08T04:46:13;8.30;99.90
6307;DHT22;3186;54.062;9.962;2023-01-08T04:48:39;8.30;99.90
6307;DHT22;3186;54.062;9.962;2023-01-08T04:51:04;8.30;99.90
6307;DHT22;3186;54.062;9.962;2023-01-08T04:53:34;8.40;99.90
6307;DHT22;3186;54.062;9.962;2023-01-08T04:56:05;8.40;99.90
6307;DHT22;3186;54.062;9.962;2023-01-08T04:58:32;8.30;99.90
6307;DHT22;3186;54.062;9.962;2023-01-08T05:00:58;8.40;99.90
6307;DHT22;3186;54.062;9.962;2023-01-08T05:03:24;8.30;99.90
6307;DHT22;3186;54.062;9.962;2023-01-08T05:05:50;8.30;99.90
6307;DHT22;3186;54.062;9.962;2023-01-08T05:08:16;8.30;99.90
6307;DHT22;3186;54.062;9.962;2023-01-08T05:10:42;8.30;99.90
6307;DHT22;3186;54.062;9.962;2023-01-08T05:13:07;8.40;99.90
6307;DHT22;3186;54.062;9.962;2023-01-08T05:15:33;8.30;99.90
6307;DHT22;3186;54.062;9.962;2023-01-08T05:18:05;8.30;99.90
6307;DHT22;3186;54.062;9.962;2023-01-08T05:20:31;8.30;99.90
6307;DHT22;3186;54.062;9.962;2023-01-08T05:22:57;8.30;99.90
6307;DHT22;3186;54.062;9.962;2023-01-08T05:25:23;8.30;99.90
6307;DHT22;3186;54.062;9.962;2023-01-08T05:27:49;8.20;99.90
6307;DHT22;3186;54.062;9.962;2023-01-08T05:30:15;8.20;99.90
6307;DHT22;3186;54.062;9.962;2023-01-08T05:32:41;8.30;99.90
6307;DHT22;3186;54.062;9.962;2023-01-08T05:35:07;8.20;99.90
6307;DHT22;3186;54.062;9.962;2023-01-08T05:37:34;8.20;99.90
6307;DHT22;3186;54.062;9.962;2023-01-08T05:40:00;8.20;99.90
6307;DHT22;3186;54.062;9.962;2023-01-08T05:42:26;8.20;99.90
6307;DHT22;3186;54.062;9.962;2023-01-08T05:44:52;8.30;99.90
6307;DHT22;3186;54.062;9.962;2023-01-08T05:47:17;8.30;99.90
6307;DHT22;3186;54.062;9.962;2023-01-08T05:49:43;8.20;99.90
6307;DHT22;3186;54.062;9.962;2023-01-08T05:52:09;8.20;99.90
6307;DHT22;3186;54.062;9.962;2023-01-08T05:54:35;8.20;99.90
6307;DHT22;3186;54.062;9.962;2023-01-08T05:57:01;8.20;99.90
6307;DHT22;3186;54.062;9.962;2023-01-08T05:59:26;8.20;99.90
6307;DHT22;3186;54.062;9.962;2023-01-08T06:01:52;8.20;99.90
6307;DHT22;3186;54.062;9.962;2023-01-08T06:04:18;8.10;99.90
6307;DHT22;3186;54.062;9.962;2023-01-08T06:06:44;8.20;99.90
6307;DHT22;3186;54.062;9.962;2023-01-08T06:09:09;8.10;99.90
6307;DHT22;3186;54.062;9.962;2023-01-08T06:11:35;8.10;99.90
6307;DHT22;3186;54.062;9.962;2023-01-08T06:14:01;8.20;99.90
6307;DHT22;3186;54.062;9.962;2023-01-08T06:16:27;8.20;99.90
6307;DHT22;3186;54.062;9.962;2023-01-08T06:18:52;8.20;99.90
6307;DHT22;3186;54.062;9.962;2023-01-08T06:21:18;8.10;99.90
6307;DHT22;3186;54.062;9.962;2023-01-08T06:23:44;8.20;99.90
6307;DHT22;3186;54.062;9.962;2023-01-08T06:26:10;8.10;99.90
6307;DHT22;3186;54.062;9.962;2023-01-08T06:28:35;8.20;99.90
6307;DHT22;3186;54.062;9.962;2023-01-08T06:31:02;8.10;99.90
6307;DHT22;3186;54.062;9.962;2023-01-08T06:33:29;8.20;99.90
6307;DHT22;3186;54.062;9.962;2023-01-08T06:36:03;8.20;99.90
6307;DHT22;3186;54.062;9.962;2023-01-08T06:38:33;8.20;99.90
6307;DHT22;3186;54.062;9.962;2023-01-08T06:41:06;8.20;99.90
6307;DHT22;3186;54.062;9.962;2023-01-08T06:43:34;8.20;99.90
6307;DHT22;3186;54.062;9.962;2023-01-08T06:46:00;8.30;99.90
6307;DHT22;3186;54.062;9.962;2023-01-08T06:48:26;8.20;99.90
6307;DHT22;3186;54.062;9.962;2023-01-08T06:50:52;8.30;99.90
6307;DHT22;3186;54.062;9.962;2023-01-08T06:53:18;8.30;99.90
6307;DHT22;3186;54.062;9.962;2023-01-08T06:55:44;8.30;99.90
6307;DHT22;3186;54.062;9.962;2023-01-08T06:58:10;8.30;99.90
6307;DHT22;3186;54.062;9.962;2023-01-08T07:00:37;8.30;99.90
6307;DHT22;3186;54.062;9.962;2023-01-08T07:03:03;8.40;99.90
6307;DHT22;3186;54.062;9.962;2023-01-08T07:05:29;8.40;99.90
6307;DHT22;3186;54.062;9.962;2023-01-08T07:07:55;8.40;99.90
6307;DHT22;3186;54.062;9.962;2023-01-08T07:10:21;8.40;99.90
6307;DHT22;3186;54.062;9.962;2023-01-08T07:12:48;8.40;99.90
6307;DHT22;3186;54.062;9.962;2023-01-08T07:15:14;8.40;99.90
6307;DHT22;3186;54.062;9.962;2023-01-08T07:17:40;8.40;99.90
6307;DHT22;3186;54.062;9.962;2023-01-08T07:20:06;8.30;99.90
6307;DHT22;3186;54.062;9.962;2023-01-08T07:22:32;8.40;99.90
6307;DHT22;3186;54.062;9.962;2023-01-08T07:24:58;8.40;99.90
6307;DHT22;3186;54.062;9.962;2023-01-08T07:27:23;8.40;99.90
6307;DHT22;3186;54.062;9.962;2023-01-08T07:29:49;8.40;99.90
6307;DHT22;3186;54.062;9.962;2023-01-08T07:32:15;8.40;99.90
6307;DHT22;3186;54.062;9.962;2023-01-08T07:34:41;8.40;99.90
6307;DHT22;3186;54.062;9.962;2023-01-08T07:37:06;8.40;99.90
6307;DHT22;3186;54.062;9.962;2023-01-08T07:39:32;8.40;99.90
6307;DHT22;3186;54.062;9.962;2023-01-08T07:41:58;8.50;99.90
6307;DHT22;3186;54.062;9.962;2023-01-08T07:44:24;8.50;99.90
6307;DHT22;3186;54.062;9.962;2023-01-08T07:46:50;8.40;99.90
6307;DHT22;3186;54.062;9.962;2023-01-08T07:49:15;8.50;99.90
6307;DHT22;3186;54.062;9.962;2023-01-08T07:51:41;8.50;99.90
6307;DHT22;3186;54.062;9.962;2023-01-08T07:54:07;8.40;99.90
6307;DHT22;3186;54.062;9.962;2023-01-08T07:56:33;8.40;99.90
6307;DHT22;3186;54.062;9.962;2023-01-08T07:58:59;8.40;99.90
6307;DHT22;3186;54.062;9.962;2023-01-08T08:01:25;8.40;99.90
6307;DHT22;3186;54.062;9.962;2023-01-08T08:03:51;8.50;99.90
6307;DHT22;3186;54.062;9.962;2023-01-08T08:06:17;8.40;99.90
6307;DHT22;3186;54.062;9.962;2023-01-08T08:08:43;8.40;99.90
6307;DHT22;3186;54.062;9.962;2023-01-08T08:11:09;8.40;99.90
6307;DHT22;3186;54.062;9.962;2023-01-08T08:13:35;8.40;99.90
6307;DHT22;3186;54.062;9.962;2023-01-08T08:16:02;8.50;99.90
6307;DHT22;3186;54.062;9.962;2023-01-08T08:18:29;8.50;99.90
6307;DHT22;3186;54.062;9.962;2023-01-08T08:20:55;8.50;99.90
6307;DHT22;3186;54.062;9.962;2023-01-08T08:23:20;8.40;99.90
6307;DHT22;3186;54.062;9.962;2023-01-08T08:25:46;8.50;99.90
6307;DHT22;3186;54.062;9.962;2023-01-08T08:28:12;8.50;99.90
6307;DHT22;3186;54.062;9.962;2023-01-08T08:30:38;8.50;99.90
6307;DHT22;3186;54.062;9.962;2023-01-08T08:33:05;8.50;99.90
6307;DHT22;3186;54.062;9.962;2023-01-08T08:35:32;8.50;99.90
6307;DHT22;3186;54.062;9.962;2023-01-08T08:37:58;8.50;99.90
6307;DHT22;3186;54.062;9.962;2023-01-08T08:40:25;8.50;99.90
6307;DHT22;3186;54.062;9.962;2023-01-08T08:43:02;8.60;99.90
6307;DHT22;3186;54.062;9.962;2023-01-08T08:45:29;8.50;99.90
6307;DHT22;3186;54.062;9.962;2023-01-08T08:47:55;8.50;99.90
6307;DHT22;3186;54.062;9.962;2023-01-08T08:50:21;8.50;99.90
6307;DHT22;3186;54.062;9.962;2023-01-08T08:52:47;8.50;99.90
6307;DHT22;3186;54.062;9.962;2023-01-08T08:55:14;8.40;99.90
6307;DHT22;3186;54.062;9.962;2023-01-08T08:57:44;8.50;99.90
6307;DHT22;3186;54.062;9.962;2023-01-08T09:00:12;8.50;99.90
6307;DHT22;3186;54.062;9.962;2023-01-08T09:02:38;8.50;99.90
6307;DHT22;3186;54.062;9.962;2023-01-08T09:05:04;8.50;99.90
6307;DHT22;3186;54.062;9.962;2023-01-08T09:07:31;8.50;99.90
6307;DHT22;3186;54.062;9.962;2023-01-08T09:09:57;8.50;99.90
6307;DHT22;3186;54.062;9.962;2023-01-08T09:12:22;8.50;99.90
6307;DHT22;3186;54.062;9.962;2023-01-08T09:14:48;8.60;99.90
6307;DHT22;3186;54.062;9.962;2023-01-08T09:17:19;8.50;99.90
6307;DHT22;3186;54.062;9.962;2023-01-08T09:19:46;8.50;99.90
6307;DHT22;3186;54.062;9.962;2023-01-08T09:22:12;8.60;99.90
6307;DHT22;3186;54.062;9.962;2023-01-08T09:24:37;8.60;99.90
6307;DHT22;3186;54.062;9.962;2023-01-08T09:27:03;8.60;99.90
6307;DHT22;3186;54.062;9.962;2023-01-08T09:29:29;8.60;99.90
6307;DHT22;3186;54.062;9.962;2023-01-08T09:31:55;8.50;99.90
6307;DHT22;3186;54.062;9.962;2023-01-08T09:34:21;8.60;99.90
6307;DHT22;3186;54.062;9.962;2023-01-08T09:36:47;8.60;99.90
6307;DHT22;3186;54.062;9.962;2023-01-08T09:39:13;8.60;99.90
6307;DHT22;3186;54.062;9.962;2023-01-08T09:41:43;8.60;99.90
6307;DHT22;3186;54.062;9.962;2023-01-08T09:44:17;8.60;99.90
6307;DHT22;3186;54.062;9.962;2023-01-08T09:46:45;8.70;99.90
6307;DHT22;3186;54.062;9.962;2023-01-08T09:49:18;9.50;99.90
6307;DHT22;3186;54.062;9.962;2023-01-08T09:51:45;8.70;99.90
6307;DHT22;3186;54.062;9.962;2023-01-08T09:54:14;8.70;99.90
6307;DHT22;3186;54.062;9.962;2023-01-08T09:56:40;8.70;99.90
6307;DHT22;3186;54.062;9.962;2023-01-08T09:59:11;8.80;99.90
6307;DHT22;3186;54.062;9.962;2023-01-08T10:01:38;8.80;99.90
6307;DHT22;3186;54.062;9.962;2023-01-08T10:04:15;8.70;99.90
6307;DHT22;3186;54.062;9.962;2023-01-08T10:09:15;8.80;99.90
6307;DHT22;3186;54.062;9.962;2023-01-08T10:11:45;8.90;99.90
6307;DHT22;3186;54.062;9.962;2023-01-08T10:14:28;8.90;99.90
6307;DHT22;3186;54.062;9.962;2023-01-08T10:19:39;8.90;99.90
6307;DHT22;3186;54.062;9.962;2023-01-08T10:22:12;9.00;99.90
6307;DHT22;3186;54.062;9.962;2023-01-08T10:24:39;9.00;99.90
6307;DHT22;3186;54.062;9.962;2023-01-08T10:27:14;9.00;99.90
6307;DHT22;3186;54.062;9.962;2023-01-08T10:29:41;9.10;99.90
6307;DHT22;3186;54.062;9.962;2023-01-08T10:32:19;9.10;99.90
6307;DHT22;3186;54.062;9.962;2023-01-08T10:34:51;9.10;99.90
6307;DHT22;3186;54.062;9.962;2023-01-08T10:40:05;9.10;99.90
6307;DHT22;3186;54.062;9.962;2023-01-08T10:42:34;9.10;99.90
6307;DHT22;3186;54.062;9.962;2023-01-08T10:45:09;9.10;99.90
6307;DHT22;3186;54.062;9.962;2023-01-08T10:47:37;9.10;99.90
6307;DHT22;3186;54.062;9.962;2023-01-08T10:50:05;9.10;99.90
6307;DHT22;3186;54.062;9.962;2023-01-08T10:52:55;9.10;99.90
6307;DHT22;3186;54.062;9.962;2023-01-08T11:00:36;9.10;99.90
6307;DHT22;3186;54.062;9.962;2023-01-08T11:03:07;9.10;99.90
6307;DHT22;3186;54.062;9.962;2023-01-08T11:05:39;9.10;99.90
6307;DHT22;3186;54.062;9.962;2023-01-08T11:08:12;9.20;99.90
6307;DHT22;3186;54.062;9.962;2023-01-08T11:10:39;9.20;99.90
6307;DHT22;3186;54.062;9.962;2023-01-08T11:13:06;9.20;99.90
6307;DHT22;3186;54.062;9.962;2023-01-08T11:15:37;9.20;99.90
6307;DHT22;3186;54.062;9.962;2023-01-08T11:18:20;9.30;99.90
6307;DHT22;3186;54.062;9.962;2023-01-08T11:20:47;9.20;99.90
6307;DHT22;3186;54.062;9.962;2023-01-08T11:25:48;9.30;99.90
6307;DHT22;3186;54.062;9.962;2023-01-08T11:28:28;9.30;99.90
6307;DHT22;3186;54.062;9.962;2023-01-08T11:31:04;9.30;99.90
6307;DHT22;3186;54.062;9.962;2023-01-08T11:33:35;9.20;99.90
6307;DHT22;3186;54.062;9.962;2023-01-08T11:36:12;9.30;99.90
6307;DHT22;3186;54.062;9.962;2023-01-08T11:38:43;9.30;99.90
6307;DHT22;3186;54.062;9.962;2023-01-08T11:55:05;9.40;99.90
6307;DHT22;3186;54.062;9.962;2023-01-08T12:02:57;9.50;99.90
6307;DHT22;3186;54.062;9.962;2023-01-08T12:10:57;9.70;99.90
6307;DHT22;3186;54.062;9.962;2023-01-08T12:16:24;9.60;99.90
6307;DHT22;3186;54.062;9.962;2023-01-08T12:19:07;9.60;99.90
6307;DHT22;3186;54.062;9.962;2023-01-08T12:32:26;9.70;99.90
6307;DHT22;3186;54.062;9.962;2023-01-08T12:35:06;9.60;99.90
6307;DHT22;3186;54.062;9.962;2023-01-08T12:37:59;9.60;99.90
6307;DHT22;3186;54.062;9.962;2023-01-08T12:40:32;9.70;99.90
6307;DHT22;3186;54.062;9.962;2023-01-08T12:43:04;9.70;99.90
6307;DHT22;3186;54.062;9.962;2023-01-08T12:45:39;9.60;99.90
6307;DHT22;3186;54.062;9.962;2023-01-08T12:48:10;9.70;99.90
6307;DHT22;3186;54.062;9.962;2023-01-08T13:02:02;9.60;99.90
6307;DHT22;3186;54.062;9.962;2023-01-08T13:04:43;9.70;99.90
6307;DHT22;3186;54.062;9.962;2023-01-08T13:07:34;9.70;99.90
6307;DHT22;3186;54.062;9.962;2023-01-08T13:10:08;9.60;99.90
6307;DHT22;3186;54.062;9.962;2023-01-08T13:12:49;9.60;99.90
6307;DHT22;3186;54.062;9.962;2023-01-08T13:15:24;9.60;99.90
6307;DHT22;3186;54.062;9.962;2023-01-08T13:17:53;9.60;99.90
6307;DHT22;3186;54.062;9.962;2023-01-08T13:20:28;9.60;99.90
6307;DHT22;3186;54.062;9.962;2023-01-08T13:23:00;9.50;99.90
6307;DHT22;3186;54.062;9.962;2023-01-08T13:25:34;9.50;99.90
6307;DHT22;3186;54.062;9.962;2023-01-08T13:28:24;9.50;99.90
6307;DHT22;3186;54.062;9.962;2023-01-08T13:30:52;9.50;99.90
6307;DHT22;3186;54.062;9.962;2023-01-08T13:33:36;9.50;99.90
6307;DHT22;3186;54.062;9.962;2023-01-08T13:38:57;9.50;99.90
6307;DHT22;3186;54.062;9.962;2023-01-08T13:41:30;9.40;99.90
6307;DHT22;3186;54.062;9.962;2023-01-08T13:44:05;9.40;99.90
6307;DHT22;3186;54.062;9.962;2023-01-08T13:46:36;9.40;99.90
6307;DHT22;3186;54.062;9.962;2023-01-08T13:51:41;9.40;99.90
6307;DHT22;3186;54.062;9.962;2023-01-08T13:56:40;9.30;99.90
6307;DHT22;3186;54.062;9.962;2023-01-08T13:59:19;9.30;99.90
6307;DHT22;3186;54.062;9.962;2023-01-08T14:01:56;9.30;99.90
6307;DHT22;3186;54.062;9.962;2023-01-08T14:04:23;9.30;99.90
6307;DHT22;3186;54.062;9.962;2023-01-08T14:06:49;9.30;99.90
6307;DHT22;3186;54.062;9.962;2023-01-08T14:09:23;9.20;99.90
6307;DHT22;3186;54.062;9.962;2023-01-08T14:11:52;9.20;99.90
6307;DHT22;3186;54.062;9.962;2023-01-08T14:14:21;9.20;99.90
6307;DHT22;3186;54.062;9.962;2023-01-08T14:16:49;9.20;99.90
6307;DHT22;3186;54.062;9.962;2023-01-08T14:19:19;9.20;99.90
6307;DHT22;3186;54.062;9.962;2023-01-08T14:21:53;9.10;99.90
6307;DHT22;3186;54.062;9.962;2023-01-08T14:24:21;9.10;99.90
6307;DHT22;3186;54.062;9.962;2023-01-08T14:26:57;9.10;99.90
6307;DHT22;3186;54.062;9.962;2023-01-08T14:29:26;9.10;99.90
6307;DHT22;3186;54.062;9.962;2023-01-08T14:31:56;9.10;99.90
6307;DHT22;3186;54.062;9.962;2023-01-08T14:34:24;9.00;99.90
6307;DHT22;3186;54.062;9.962;2023-01-08T14:36:52;9.00;99.90
6307;DHT22;3186;54.062;9.962;2023-01-08T14:39:24;8.90;99.90
6307;DHT22;3186;54.062;9.962;2023-01-08T14:41:52;9.00;99.90
6307;DHT22;3186;54.062;9.962;2023-01-08T14:44:39;9.00;99.90
6307;DHT22;3186;54.062;9.962;2023-01-08T14:47:11;9.10;99.90
6307;DHT22;3186;54.062;9.962;2023-01-08T14:49:37;9.00;99.90
6307;DHT22;3186;54.062;9.962;2023-01-08T14:52:11;9.10;99.90
6307;DHT22;3186;54.062;9.962;2023-01-08T14:54:37;9.00;99.90
6307;DHT22;3186;54.062;9.962;2023-01-08T14:57:04;9.00;99.90
6307;DHT22;3186;54.062;9.962;2023-01-08T14:59:33;9.10;99.90
6307;DHT22;3186;54.062;9.962;2023-01-08T15:02:03;9.00;99.90
6307;DHT22;3186;54.062;9.962;2023-01-08T15:04:30;10.50;99.90
6307;DHT22;3186;54.062;9.962;2023-01-08T15:07:21;8.90;99.90
6307;DHT22;3186;54.062;9.962;2023-01-08T15:09:58;8.90;99.90
6307;DHT22;3186;54.062;9.962;2023-01-08T15:12:28;8.90;99.90
6307;DHT22;3186;54.062;9.962;2023-01-08T15:15:23;8.90;99.90
6307;DHT22;3186;54.062;9.962;2023-01-08T15:17:49;8.80;99.90
6307;DHT22;3186;54.062;9.962;2023-01-08T15:20:19;8.80;99.90
6307;DHT22;3186;54.062;9.962;2023-01-08T15:22:46;8.70;99.90
6307;DHT22;3186;54.062;9.962;2023-01-08T15:25:26;8.70;99.90
6307;DHT22;3186;54.062;9.962;2023-01-08T15:28:00;8.70;99.90
6307;DHT22;3186;54.062;9.962;2023-01-08T15:30:33;8.70;99.90
6307;DHT22;3186;54.062;9.962;2023-01-08T15:33:15;8.60;99.90
6307;DHT22;3186;54.062;9.962;2023-01-08T15:35:42;8.60;99.90
6307;DHT22;3186;54.062;9.962;2023-01-08T15:38:08;8.60;99.90
6307;DHT22;3186;54.062;9.962;2023-01-08T15:40:33;8.50;99.90
6307;DHT22;3186;54.062;9.962;2023-01-08T15:42:59;8.50;99.90
6307;DHT22;3186;54.062;9.962;2023-01-08T15:45:34;8.50;99.90
6307;DHT22;3186;54.062;9.962;2023-01-08T15:48:02;8.40;99.90
6307;DHT22;3186;54.062;9.962;2023-01-08T15:50:28;8.40;99.90
6307;DHT22;3186;54.062;9.962;2023-01-08T15:52:57;8.40;99.90
6307;DHT22;3186;54.062;9.962;2023-01-08T15:55:25;8.30;99.90
6307;DHT22;3186;54.062;9.962;2023-01-08T15:57:51;8.30;99.90
6307;DHT22;3186;54.062;9.962;2023-01-08T16:00:18;8.30;99.90
6307;DHT22;3186;54.062;9.962;2023-01-08T16:02:49;8.30;99.90
6307;DHT22;3186;54.062;9.962;2023-01-08T16:05:17;8.20;99.90
6307;DHT22;3186;54.062;9.962;2023-01-08T16:07:44;8.20;99.90
6307;DHT22;3186;54.062;9.962;2023-01-08T16:10:14;8.20;99.90
6307;DHT22;3186;54.062;9.962;2023-01-08T16:12:40;8.10;99.90
6307;DHT22;3186;54.062;9.962;2023-01-08T16:15:08;8.20;99.90
6307;DHT22;3186;54.062;9.962;2023-01-08T16:17:35;8.10;99.90
6307;DHT22;3186;54.062;9.962;2023-01-08T16:20:05;8.00;99.90
6307;DHT22;3186;54.062;9.962;2023-01-08T16:22:31;8.00;99.90
6307;DHT22;3186;54.062;9.962;2023-01-08T16:24:57;8.00;99.90
6307;DHT22;3186;54.062;9.962;2023-01-08T16:27:23;8.00;99.90
6307;DHT22;3186;54.062;9.962;2023-01-08T16:29:49;7.90;99.90
6307;DHT22;3186;54.062;9.962;2023-01-08T16:32:15;7.90;99.90
6307;DHT22;3186;54.062;9.962;2023-01-08T16:34:40;7.80;99.90
6307;DHT22;3186;54.062;9.962;2023-01-08T16:37:06;7.80;99.90
6307;DHT22;3186;54.062;9.962;2023-01-08T16:39:32;7.80;99.90
6307;DHT22;3186;54.062;9.962;2023-01-08T16:41:58;7.80;99.90
6307;DHT22;3186;54.062;9.962;2023-01-08T16:44:25;7.70;99.90
6307;DHT22;3186;54.062;9.962;2023-01-08T16:46:55;7.70;99.90
6307;DHT22;3186;54.062;9.962;2023-01-08T16:49:22;7.70;99.90
6307;DHT22;3186;54.062;9.962;2023-01-08T16:51:47;7.70;99.90
6307;DHT22;3186;54.062;9.962;2023-01-08T16:54:15;7.70;99.90
6307;DHT22;3186;54.062;9.962;2023-01-08T16:56:41;7.60;99.90
6307;DHT22;3186;54.062;9.962;2023-01-08T16:59:08;7.60;99.90
6307;DHT22;3186;54.062;9.962;2023-01-08T17:01:34;7.60;99.90
6307;DHT22;3186;54.062;9.962;2023-01-08T17:04:00;7.60;99.90
6307;DHT22;3186;54.062;9.962;2023-01-08T17:06:26;7.60;99.90
6307;DHT22;3186;54.062;9.962;2023-01-08T17:08:52;7.60;99.90
6307;DHT22;3186;54.062;9.962;2023-01-08T17:11:20;7.60;99.90
6307;DHT22;3186;54.062;9.962;2023-01-08T17:13:47;7.60;99.90
6307;DHT22;3186;54.062;9.962;2023-01-08T17:16:15;7.60;99.90
6307;DHT22;3186;54.062;9.962;2023-01-08T17:18:41;7.60;99.90
6307;DHT22;3186;54.062;9.962;2023-01-08T17:21:08;7.60;99.90
6307;DHT22;3186;54.062;9.962;2023-01-08T17:23:35;7.60;99.90
6307;DHT22;3186;54.062;9.962;2023-01-08T17:26:04;7.60;99.90
6307;DHT22;3186;54.062;9.962;2023-01-08T17:28:30;7.60;99.90
6307;DHT22;3186;54.062;9.962;2023-01-08T17:31:11;7.60;99.90
6307;DHT22;3186;54.062;9.962;2023-01-08T17:33:37;7.60;99.90
6307;DHT22;3186;54.062;9.962;2023-01-08T17:36:10;7.60;99.90
6307;DHT22;3186;54.062;9.962;2023-01-08T17:38:37;7.60;99.90
6307;DHT22;3186;54.062;9.962;2023-01-08T17:41:03;7.60;99.90
6307;DHT22;3186;54.062;9.962;2023-01-08T17:43:36;7.60;99.90
6307;DHT22;3186;54.062;9.962;2023-01-08T17:46:03;7.40;99.90
6307;DHT22;3186;54.062;9.962;2023-01-08T17:48:29;7.60;99.90
6307;DHT22;3186;54.062;9.962;2023-01-08T17:50:55;7.60;99.90
6307;DHT22;3186;54.062;9.962;2023-01-08T17:53:21;7.60;99.90
6307;DHT22;3186;54.062;9.962;2023-01-08T17:55:47;7.60;99.90
6307;DHT22;3186;54.062;9.962;2023-01-08T17:58:13;7.60;99.90